MPDA/DAV METAR and TAF weather

Enter ICAO airport designator
Station Type Date Time Source
MPDA METAR 2020/01/23 22:00 UTC NOAA

MPDA 232200Z 11005KT 2000NE TSVCSH SCT010CB BKN080 27/23 Q1008


Station Type Date Time Source
MPDA Decoded METAR 2020/01/23 22:00 UTC NOAA

David, Panama (MPDA) 08-24N 082-25W 26M
Jan 23, 2020 - 05:00 PM EST / 2020.01.23 2200 UTC
Wind: from the ESE (110 degrees) at 6 MPH (5 KT):0
Visibility: 1 mile(s):0
Sky conditions: mostly cloudy
Weather: with thunder showers; Cumulonimbus clouds observed
Temperature: 80 F (27 C)
Dew Point: 73 F (23 C)
Relative Humidity: 78%
Pressure (altimeter): 29.77 in. Hg (1008 hPa)
ob: MPDA 232200Z 11005KT 2000NE TSVCSH SCT010CB BKN080 27/23 Q1008
cycle: 22

Station Type Date Time Source
MPDA TAF 2020/01/24 00:06 UTC NOAA

TAF
AMD TAF
AMD MPDA 240300Z 2400/2412 CNL

Example: see airport list